VYS weather

Illinois Valley Regional Airport-Walter A Duncan Field
Peru, Illinois, United States

Public forecast

Using degrees Fahrenheit for public forecast. Weather courtesy of forecast.io.

METAR (pilot weather report)

Retrieved 2019/08/24 08:35 UTC (0 seconds ago):

KVYS 240835Z AUTO 05004KT 10SM CLR 13/11 A3025 RMK AO2 T01250108

TAF (pilot weather forecast)

Closest forecast is General Wayne A. Downing Peoria International Airport, 48.0 nm (88.9 km) SSW. Retrieved 2019/08/24 06:22 UTC (2 hours ago):

TAF KPIA 240520Z 2406/2506 07007KT P6SM SKC FM241500 09010KT P6SM FEW050